Time;durP1;ratioP1;P1;durP2;ratioP2;P2;SDS_P1;SDS_P2;PMS_P1;PMS_P2;Temp;Humidity;BMP_temperature;BMP_pressure;BME280_temperature;BME280_humidity;BME280_pressure;Samples;Min_cycle;Max_cycle;Signal;HPM_P1;HPM_P2
2022/07/16 00:02:38;;;;;;;8.98;5.85;;;;;;;29.33;67.08;100609.56;4964283;28;69531;-34
2022/07/16 00:05:09;;;;;;;;;;;;;;;29.16;69.50;100620.84;4957284;28;66191;-36
2022/07/16 00:07:40;;;;;;;7.53;5.47;;;;;;;29.50;68.01;100626.09;4957026;28;70356;-34
2022/07/16 00:10:11;;;;;;;6.72;5.90;;;;;;;29.55;68.91;100631.66;4956808;28;66501;-35
2022/07/16 00:12:42;;;;;;;8.20;6.53;;;;;;;29.59;69.02;100635.59;5023644;28;69778;-36
2022/07/16 00:15:13;;;;;;;8.88;6.60;;;;;;;29.65;69.14;100639.34;4961637;28;66747;-36
2022/07/16 00:17:44;;;;;;;8.45;6.00;;;;;;;29.60;70.22;100637.25;4963274;28;69787;-37
2022/07/16 00:20:15;;;;;;;21.85;9.73;;;;;;;29.69;71.90;100652.19;4958025;28;65840;-38
2022/07/16 00:22:46;;;;;;;18.38;9.20;;;;;;;29.69;73.46;100646.78;5015565;28;69260;-35
2022/07/16 00:25:17;;;;;;;26.48;10.73;;;;;;;29.72;74.71;100651.75;5015379;28;65789;-35
2022/07/16 00:27:48;;;;;;;32.42;10.27;;;;;;;29.71;74.47;100650.09;4946825;28;70102;-34
2022/07/16 00:30:18;;;;;;;28.77;9.57;;;;;;;29.78;74.32;100650.91;4958957;28;66606;-35
2022/07/16 00:32:49;;;;;;;20.92;9.18;;;;;;;29.80;74.07;100654.19;4953704;28;70163;-35
2022/07/16 00:35:21;;;;;;;18.53;8.40;;;;;;;29.81;75.21;100660.44;4957506;28;65329;-35
2022/07/16 00:37:52;;;;;;;16.00;8.23;;;;;;;29.86;74.91;100654.38;4957807;28;69261;-35
2022/07/16 00:40:23;;;;;;;25.67;8.82;;;;;;;29.91;73.91;100665.38;5024965;28;67348;-37
2022/07/16 00:42:54;;;;;;;15.93;8.03;;;;;;;29.93;73.19;100664.09;5004919;28;69987;-38
2022/07/16 00:45:25;;;;;;;16.33;8.05;;;;;;;29.99;73.33;100660.50;4957151;28;66313;-37
2022/07/16 00:47:56;;;;;;;12.50;8.02;;;;;;;29.87;73.68;100648.75;5022893;28;69558;-37
2022/07/16 00:50:27;;;;;;;18.40;7.65;;;;;;;29.98;72.88;100655.34;4955989;28;66261;-38
2022/07/16 00:53:01;;;;;;;8.10;5.90;;;;;;;30.01;71.11;100649.50;5015023;28;69891;-35
2022/07/16 00:55:32;;;;;;;8.93;6.57;;;;;;;30.10;70.50;100648.16;4951871;28;65103;-35
2022/07/16 00:58:03;;;;;;;9.90;6.40;;;;;;;30.17;70.37;100648.94;4958650;28;71184;-37
2022/07/16 01:00:34;;;;;;;11.48;6.03;;;;;;;30.25;70.60;100654.09;5030257;28;65148;-37
2022/07/16 01:03:07;;;;;;;13.30;6.47;;;;;;;30.32;69.91;100645.09;4948304;28;70271;-35
2022/07/16 01:05:38;;;;;;;8.05;5.80;;;;;;;30.30;69.68;100639.06;5034565;28;65222;-35
2022/07/16 01:08:11;;;;;;;16.45;6.93;;;;;;;30.41;69.71;100650.00;5031779;28;70032;-35
2022/07/16 01:10:44;;;;;;;6.38;5.63;;;;;;;30.47;69.17;100653.69;4950104;28;66091;-36
2022/07/16 01:13:15;;;;;;;;;;;;;;;30.16;71.00;100647.28;4958373;28;70214;-35
2022/07/16 01:15:46;;;;;;;8.40;5.97;;;;;;;30.49;68.68;100652.41;4958817;28;65439;-36
2022/07/16 01:18:17;;;;;;;6.82;5.38;;;;;;;30.56;68.33;100660.44;4956203;28;69539;-36
2022/07/16 01:20:49;;;;;;;7.33;5.80;;;;;;;30.59;68.69;100661.88;4955960;28;66261;-36
2022/07/16 01:23:22;;;;;;;9.32;6.00;;;;;;;30.63;68.03;100669.34;4952002;28;70389;-36
2022/07/16 01:25:53;;;;;;;6.38;5.78;;;;;;;30.70;67.79;100675.53;4949168;28;65270;-36
2022/07/16 01:28:24;;;;;;;6.28;5.35;;;;;;;30.62;68.26;100659.59;5022325;28;69773;-35
2022/07/16 01:30:55;;;;;;;7.75;5.40;;;;;;;30.65;67.68;100669.97;4956446;28;66817;-35
2022/07/16 01:33:30;;;;;;;7.13;5.80;;;;;;;30.38;67.85;100623.38;5018550;28;69841;-35
2022/07/16 01:36:04;;;;;;;8.90;5.47;;;;;;;30.36;67.42;100603.81;4956943;28;66024;-36
2022/07/16 01:38:38;;;;;;;5.78;5.10;;;;;;;30.48;67.14;100622.88;4960574;28;70423;-35
2022/07/16 01:41:11;;;;;;;6.75;5.57;;;;;;;30.90;67.37;100698.91;4993573;28;66395;-37
2022/07/16 01:43:42;;;;;;;5.88;5.32;;;;;;;30.63;67.41;100647.69;5011441;28;69897;-37
2022/07/16 01:46:13;;;;;;;8.53;5.87;;;;;;;30.95;67.14;100704.44;5005230;28;65829;-38
2022/07/16 01:48:44;;;;;;;5.93;5.32;;;;;;;30.98;67.25;100706.75;5022565;28;70473;-36
2022/07/16 01:51:15;;;;;;;5.60;5.10;;;;;;;31.01;66.63;100692.75;4959693;28;66328;-36
2022/07/16 01:53:46;;;;;;;5.27;4.53;;;;;;;31.02;67.04;100694.38;4960182;28;69928;-34
2022/07/16 01:56:17;;;;;;;6.47;4.97;;;;;;;30.92;66.80;100675.13;4959553;28;65055;-35
2022/07/16 01:58:48;;;;;;;6.10;4.73;;;;;;;31.08;66.42;100704.31;4957853;28;69697;-35
2022/07/16 02:01:19;;;;;;;6.70;4.88;;;;;;;31.11;66.27;100700.31;4957046;28;65711;-35
2022/07/16 02:03:50;;;;;;;6.25;5.10;;;;;;;31.13;66.53;100709.06;4959204;28;70367;-34
2022/07/16 02:06:21;;;;;;;6.38;5.15;;;;;;;31.16;66.40;100704.00;4952940;28;66837;-36
2022/07/16 02:08:53;;;;;;;6.88;4.65;;;;;;;31.19;66.29;100704.63;4960867;28;72039;-34
2022/07/16 02:11:23;;;;;;;5.95;4.57;;;;;;;30.79;66.08;100643.56;4951268;28;64978;-34
2022/07/16 02:13:54;;;;;;;6.68;4.70;;;;;;;31.25;65.75;100709.13;4957039;28;70045;-36
2022/07/16 02:16:25;;;;;;;5.40;4.90;;;;;;;31.22;66.15;100709.59;4951034;28;65967;-35
2022/07/16 02:18:56;;;;;;;6.30;4.70;;;;;;;31.28;65.85;100722.22;5011482;28;70654;-35
2022/07/16 02:21:28;;;;;;;7.50;5.20;;;;;;;31.31;65.55;100713.63;5010880;28;65787;-36
2022/07/16 02:23:59;;;;;;;9.20;5.10;;;;;;;31.35;65.81;100720.28;4958333;28;69174;-38
2022/07/16 02:26:30;;;;;;;6.05;4.68;;;;;;;31.35;65.42;100721.09;4954560;28;65823;-37
2022/07/16 02:29:01;;;;;;;9.90;6.80;;;;;;;31.37;65.73;100723.59;4959706;28;71367;-35
2022/07/16 02:31:40;;;;;;;8.50;5.95;;;;;;;31.29;67.06;100715.75;5023552;28;65815;-35
2022/07/16 02:34:11;;;;;;;11.63;6.28;;;;;;;31.21;67.95;100718.78;4957268;28;68442;-34
2022/07/16 02:36:43;;;;;;;9.43;6.40;;;;;;;31.01;68.39;100706.28;4959847;28;66022;-35
2022/07/16 02:39:14;;;;;;;6.50;5.90;;;;;;;31.08;68.90;100725.97;4958161;28;70907;-36
2022/07/16 02:41:45;;;;;;;6.97;6.35;;;;;;;31.04;69.28;100724.78;4957582;28;67920;-35
2022/07/16 02:44:15;;;;;;;6.30;5.72;;;;;;;31.03;69.66;100717.69;4957858;28;70344;-35
2022/07/16 02:46:46;;;;;;;10.48;6.03;;;;;;;30.44;69.82;100625.19;4958268;28;67377;-36
2022/07/16 02:49:18;;;;;;;9.65;6.25;;;;;;;30.98;69.94;100709.44;4958842;28;71789;-36
2022/07/16 02:51:48;;;;;;;6.32;5.72;;;;;;;30.95;70.41;100699.03;4959328;28;67445;-37
2022/07/16 02:54:19;;;;;;;6.05;5.43;;;;;;;31.00;70.29;100710.03;4958641;28;69843;-34
2022/07/16 02:56:50;;;;;;;8.75;6.13;;;;;;;31.01;70.57;100708.13;4959790;28;66165;-35
2022/07/16 02:59:21;;;;;;;8.48;5.82;;;;;;;31.03;70.65;100711.47;4947078;28;70439;-38
2022/07/16 03:01:52;;;;;;;7.27;5.87;;;;;;;31.01;70.20;100713.56;4957537;28;65962;-36
2022/07/16 03:04:23;;;;;;;8.80;6.15;;;;;;;31.00;70.51;100712.72;4960033;28;70125;-36
2022/07/16 03:06:54;;;;;;;6.95;5.70;;;;;;;31.02;70.18;100709.81;4956639;28;65390;-36
2022/07/16 03:09:25;;;;;;;6.07;5.50;;;;;;;30.95;70.67;100690.91;4953514;28;69158;-35
2022/07/16 03:11:56;;;;;;;8.13;5.55;;;;;;;30.94;70.47;100691.97;4951073;28;66112;-37
2022/07/16 03:14:27;;;;;;;7.82;5.82;;;;;;;31.02;70.69;100699.81;4956634;28;70185;-37
2022/07/16 03:16:58;;;;;;;6.65;5.45;;;;;;;31.03;70.89;100696.03;4956946;28;67025;-37
2022/07/16 03:19:29;;;;;;;5.78;5.18;;;;;;;30.97;70.74;100677.16;4956669;28;70705;-37
2022/07/16 03:22:00;;;;;;;5.68;5.28;;;;;;;31.07;70.52;100686.41;4956944;28;65675;-37
2022/07/16 03:24:30;;;;;;;7.25;5.90;;;;;;;31.09;70.83;100687.03;4955070;28;70650;-36
2022/07/16 03:27:01;;;;;;;6.07;5.50;;;;;;;31.08;70.62;100684.53;4953843;28;68151;-36
2022/07/16 03:29:32;;;;;;;5.38;4.88;;;;;;;31.09;70.58;100675.34;4957859;28;70538;-37
2022/07/16 03:32:03;;;;;;;8.32;5.13;;;;;;;31.13;70.49;100685.50;5018150;28;67044;-37
2022/07/16 03:34:35;;;;;;;5.57;4.93;;;;;;;31.13;70.93;100680.09;4956445;28;71728;-36
2022/07/16 03:37:06;;;;;;;6.35;5.15;;;;;;;31.15;70.45;100677.97;4955054;28;65584;-39
2022/07/16 03:39:37;;;;;;;6.93;5.10;;;;;;;31.16;70.69;100668.78;4951167;28;71290;-38
2022/07/16 03:42:08;;;;;;;5.40;4.90;;;;;;;31.21;70.14;100670.00;4954185;28;65633;-37
2022/07/16 03:44:39;;;;;;;7.43;4.70;;;;;;;31.22;70.43;100666.22;4956542;28;71801;-37
2022/07/16 03:47:10;;;;;;;12.18;4.20;;;;;;;31.20;70.16;100657.50;4955276;28;66534;-39
2022/07/16 03:49:41;;;;;;;6.75;4.38;;;;;;;31.25;70.08;100649.50;4947704;28;69394;-36
2022/07/16 03:52:12;;;;;;;10.60;5.43;;;;;;;31.25;70.53;100650.31;4952335;28;67241;-36
2022/07/16 03:54:43;;;;;;;11.07;4.90;;;;;;;30.92;70.42;100601.97;4953115;28;70179;-36
2022/07/16 03:57:14;;;;;;;10.75;4.60;;;;;;;31.25;70.29;100638.66;4958150;28;66350;-36
2022/07/16 03:59:45;;;;;;;6.95;4.65;;;;;;;31.32;70.27;100642.13;5015909;28;69278;-36
2022/07/16 04:02:16;;;;;;;5.00;4.50;;;;;;;31.32;70.37;100636.72;4976627;28;67483;-38
2022/07/16 04:04:47;;;;;;;4.27;3.73;;;;;;;31.35;69.90;100628.13;4945502;28;70395;-36
2022/07/16 04:07:18;;;;;;;5.60;5.10;;;;;;;31.35;70.10;100628.13;4957417;28;66266;-37
2022/07/16 04:09:48;;;;;;;7.85;4.97;;;;;;;31.29;70.35;100618.19;4956549;28;70411;-36
2022/07/16 04:12:23;;;;;;;4.88;4.47;;;;;;;30.91;70.22;100551.59;5006251;28;66144;-36
2022/07/16 04:14:53;;;;;;;6.45;4.50;;;;;;;31.36;70.50;100618.94;4956887;28;70264;-36
2022/07/16 04:17:24;;;;;;;7.03;4.90;;;;;;;31.39;70.32;100623.91;4948294;28;65791;-38
2022/07/16 04:19:55;;;;;;;7.03;4.90;;;;;;;31.38;70.33;100627.69;4959089;28;70236;-36
2022/07/16 04:22:26;;;;;;;9.52;5.30;;;;;;;31.42;70.18;100623.44;4953175;28;66011;-36
2022/07/16 04:24:57;;;;;;;9.27;4.63;;;;;;;31.43;70.12;100614.28;4954805;28;70252;-36
2022/07/16 04:27:28;;;;;;;5.63;5.07;;;;;;;31.43;70.18;100613.47;4956114;28;67482;-37
2022/07/16 04:29:59;;;;;;;4.78;4.38;;;;;;;31.45;70.09;100614.84;4956848;28;70084;-36
2022/07/16 04:32:32;;;;;;;6.70;3.87;;;;;;;31.42;70.48;100612.59;5016958;28;65972;-35
2022/07/16 04:35:04;;;;;;;4.65;3.83;;;;;;;31.49;70.07;100602.50;4952805;28;69978;-37
2022/07/16 04:37:35;;;;;;;5.70;4.30;;;;;;;31.58;70.19;100598.41;4951048;28;66618;-37
2022/07/16 04:40:08;;;;;;;7.45;4.40;;;;;;;31.32;69.79;100548.09;4948783;28;69676;-37
2022/07/16 04:42:41;;;;;;;8.13;4.03;;;;;;;31.76;69.70;100602.94;4953598;28;67252;-36
2022/07/16 04:45:13;;;;;;;4.65;3.83;;;;;;;31.83;69.31;100587.34;4954623;28;69692;-37
2022/07/16 04:47:43;;;;;;;7.10;4.43;;;;;;;31.64;69.21;100555.97;4948896;28;67184;-38
2022/07/16 04:50:15;;;;;;;7.40;4.13;;;;;;;31.86;69.27;100583.34;4943403;28;69897;-37
2022/07/16 04:52:51;;;;;;;5.03;4.00;;;;;;;31.97;69.17;100592.59;4952107;28;66438;-35
2022/07/16 04:55:22;;;;;;;6.18;4.15;;;;;;;32.01;68.73;100586.47;4956766;28;69155;-36
2022/07/16 04:57:53;;;;;;;6.72;4.03;;;;;;;32.07;68.95;100582.00;4954652;28;65681;-36
2022/07/16 05:00:27;;;;;;;5.65;4.18;;;;;;;32.00;68.67;100559.56;4956175;28;69476;-36
2022/07/16 05:02:58;;;;;;;4.32;3.63;;;;;;;32.15;68.36;100568.09;4952810;28;65726;-36
2022/07/16 05:05:34;;;;;;;6.13;3.43;;;;;;;32.20;68.24;100570.88;5038707;28;70548;-36
2022/07/16 05:08:07;;;;;;;7.25;4.55;;;;;;;31.46;68.03;100439.50;4955219;28;65594;-39
2022/07/16 05:10:39;;;;;;;6.43;3.63;;;;;;;32.28;68.30;100569.72;4955292;28;69856;-38
2022/07/16 05:13:10;;;;;;;4.68;3.60;;;;;;;32.31;68.10;100565.69;4952772;28;66509;-37
2022/07/16 05:15:41;;;;;;;5.68;4.57;;;;;;;32.33;68.06;100564.41;4953383;28;70046;-36
2022/07/16 05:18:12;;;;;;;8.00;3.87;;;;;;;32.34;67.77;100554.34;4956965;28;65481;-36
2022/07/16 05:20:43;;;;;;;6.77;3.97;;;;;;;32.29;67.98;100544.25;4951170;28;69777;-37
2022/07/16 05:23:14;;;;;;;10.75;4.00;;;;;;;32.35;67.91;100540.56;4956527;28;66280;-38
2022/07/16 05:25:45;;;;;;;7.95;4.18;;;;;;;32.42;67.83;100541.25;4945433;28;70087;-38
2022/07/16 05:28:16;;;;;;;4.07;3.45;;;;;;;32.33;67.94;100525.56;4956084;28;65902;-38
2022/07/16 05:30:47;;;;;;;4.82;3.95;;;;;;;32.44;67.56;100525.53;4948787;28;70398;-37
2022/07/16 05:33:18;;;;;;;6.00;4.15;;;;;;;32.53;67.43;100534.16;4947825;28;66301;-38
2022/07/16 05:35:49;;;;;;;4.50;3.53;;;;;;;32.55;67.59;100523.09;4954110;28;70229;-37
2022/07/16 05:38:21;;;;;;;5.10;3.70;;;;;;;32.58;67.65;100533.47;4952662;28;65833;-38
2022/07/16 05:40:52;;;;;;;7.20;4.37;;;;;;;32.49;67.59;100503.97;4950250;28;70509;-37
2022/07/16 05:43:23;;;;;;;5.50;4.68;;;;;;;32.55;67.53;100512.22;4954973;28;66251;-39
2022/07/16 05:45:54;;;;;;;8.02;4.88;;;;;;;32.63;67.58;100520.81;4952256;28;70916;-36
2022/07/16 05:48:25;;;;;;;5.78;3.72;;;;;;;32.56;67.65;100490.25;4949335;28;67015;-37
2022/07/16 05:50:56;;;;;;;6.70;4.63;;;;;;;32.67;67.57;100510.28;4954099;28;69893;-37
2022/07/16 05:53:27;;;;;;;6.47;4.22;;;;;;;32.69;67.49;100508.16;4951172;28;65733;-37
2022/07/16 05:55:58;;;;;;;5.30;4.82;;;;;;;32.71;67.54;100509.56;5018027;28;71420;-37
2022/07/16 05:58:29;;;;;;;8.98;4.63;;;;;;;32.74;67.50;100508.25;5019694;28;65805;-38
2022/07/16 06:01:00;;;;;;;4.43;4.03;;;;;;;32.75;67.33;100511.81;4955722;28;70334;-37
2022/07/16 06:03:31;;;;;;;5.72;4.88;;;;;;;32.78;67.66;100506.69;4956160;28;66478;-36
2022/07/16 06:06:03;;;;;;;5.25;3.97;;;;;;;32.63;67.01;100487.41;5012923;28;70391;-39
2022/07/16 06:08:33;;;;;;;7.93;4.03;;;;;;;32.69;67.53;100492.69;4954810;28;66251;-38
2022/07/16 06:11:05;;;;;;;6.47;4.20;;;;;;;32.69;67.53;100497.28;4952698;28;69730;-36
2022/07/16 06:13:39;;;;;;;4.45;3.65;;;;;;;32.73;67.73;100498.44;4951380;28;66775;-44
2022/07/16 06:16:10;;;;;;;6.77;3.63;;;;;;;32.76;67.52;100497.13;5011549;28;69328;-38
2022/07/16 06:18:42;;;;;;;8.73;3.83;;;;;;;32.77;67.84;100499.63;5024027;28;65239;-37
2022/07/16 06:21:13;;;;;;;6.20;3.63;;;;;;;32.83;67.61;100486.97;4946973;28;70220;-36
2022/07/16 06:23:44;;;;;;;4.72;3.50;;;;;;;32.77;67.68;100480.63;4958394;28;65394;-36
2022/07/16 06:26:15;;;;;;;4.28;3.42;;;;;;;32.85;67.67;100496.53;5017610;28;69724;-36
2022/07/16 06:28:46;;;;;;;7.13;3.40;;;;;;;32.75;67.44;100473.78;4958789;28;66177;-35
2022/07/16 06:31:17;;;;;;;6.57;4.10;;;;;;;32.85;67.58;100484.84;4958230;28;69988;-36
2022/07/16 06:33:48;;;;;;;4.40;3.50;;;;;;;32.85;67.78;100493.81;4957766;28;65714;-36
2022/07/16 06:36:19;;;;;;;7.13;3.60;;;;;;;32.88;67.49;100485.16;4958655;28;70040;-37
2022/07/16 06:38:50;;;;;;;4.80;3.40;;;;;;;32.92;67.33;100485.50;5025566;28;65612;-35
2022/07/16 06:41:21;;;;;;;4.03;3.40;;;;;;;32.96;67.49;100481.25;4959005;28;69794;-39
2022/07/16 06:43:52;;;;;;;3.88;3.47;;;;;;;32.96;67.37;100469.53;4953739;28;65714;-38
2022/07/16 06:46:23;;;;;;;5.63;2.87;;;;;;;32.94;67.58;100484.19;4956258;28;69161;-37
2022/07/16 06:48:55;;;;;;;3.55;3.25;;;;;;;32.99;67.17;100485.34;5018011;28;65996;-38
2022/07/16 06:51:26;;;;;;;4.53;2.95;;;;;;;32.98;67.38;100480.97;4950897;28;70266;-36
2022/07/16 06:53:57;;;;;;;8.65;3.30;;;;;;;33.01;67.12;100472.38;4955382;28;66293;-37
2022/07/16 06:56:28;;;;;;;3.90;3.13;;;;;;;33.06;67.15;100469.75;4957796;28;70157;-39
2022/07/16 06:58:59;;;;;;;3.88;3.10;;;;;;;33.12;67.16;100476.91;5022366;28;65009;-39
2022/07/16 07:01:30;;;;;;;3.72;3.38;;;;;;;33.17;66.84;100471.56;4953982;28;68752;-37
2022/07/16 07:04:01;;;;;;;5.38;3.13;;;;;;;33.19;66.89;100480.31;4949844;28;66528;-40
2022/07/16 07:06:32;;;;;;;3.33;2.83;;;;;;;33.12;66.51;100466.03;4955591;28;69074;-37
2022/07/16 07:09:03;;;;;;;3.40;3.07;;;;;;;33.11;67.03;100478.00;4952305;28;67175;-35
2022/07/16 07:11:34;;;;;;;7.57;3.40;;;;;;;33.15;66.87;100485.41;4956916;28;70339;-38
2022/07/16 07:14:05;;;;;;;5.97;3.20;;;;;;;33.09;66.92;100477.41;5028595;28;65464;-37
2022/07/16 07:16:36;;;;;;;4.30;3.28;;;;;;;33.22;66.68;100484.44;4953723;28;69332;-39
2022/07/16 07:19:07;;;;;;;4.80;3.33;;;;;;;33.16;66.65;100483.53;4958276;28;65296;-37
2022/07/16 07:21:39;;;;;;;9.77;3.63;;;;;;;33.19;66.69;100488.47;5022960;28;70211;-38
2022/07/16 07:24:10;;;;;;;6.20;3.45;;;;;;;33.19;66.61;100479.50;4958687;28;66032;-36
2022/07/16 07:27:01;;;;;;;3.85;3.20;;;;;;;33.20;66.36;100487.38;4957178;28;70348;-35
2022/07/16 07:29:32;;;;;;;3.55;3.10;;;;;;;33.15;66.36;100501.72;4955677;28;65795;-37
2022/07/16 07:32:03;;;;;;;5.40;3.77;;;;;;;33.17;66.18;100487.88;4958656;28;70158;-36
2022/07/16 07:34:34;;;;;;;5.18;3.20;;;;;;;33.12;66.38;100501.38;4957164;28;65130;-35
2022/07/16 07:37:05;;;;;;;3.47;2.73;;;;;;;33.15;66.13;100490.00;4958830;28;71248;-37
2022/07/16 07:39:36;;;;;;;8.00;3.37;;;;;;;33.17;66.23;100482.44;4958804;28;67694;-37
2022/07/16 07:42:07;;;;;;;4.28;3.45;;;;;;;33.17;66.37;100477.00;4959229;28;70315;-39
2022/07/16 07:44:39;;;;;;;10.75;3.17;;;;;;;33.20;66.06;100479.22;5023585;28;66015;-39
2022/07/16 07:47:10;;;;;;;9.32;3.60;;;;;;;33.21;65.98;100472.75;5005707;28;69690;-34
2022/07/16 07:49:41;;;;;;;9.32;3.90;;;;;;;33.23;65.92;100475.19;4956336;28;66363;-34
2022/07/16 07:52:13;;;;;;;6.28;3.63;;;;;;;33.20;65.81;100475.69;4957385;28;69563;-36
2022/07/16 07:54:44;;;;;;;9.90;3.28;;;;;;;33.22;65.95;100485.25;4958883;28;65181;-37
2022/07/16 07:57:15;;;;;;;8.27;3.30;;;;;;;33.21;66.10;100472.75;5024884;28;69567;-37
2022/07/16 07:59:46;;;;;;;9.82;3.20;;;;;;;33.27;65.93;100479.91;4975296;28;66374;-37
2022/07/16 08:02:18;;;;;;;4.45;3.60;;;;;;;33.28;66.00;100478.81;4950484;28;70825;-37
2022/07/16 08:04:49;;;;;;;7.45;2.92;;;;;;;33.09;65.75;100442.06;4953775;28;66518;-37
2022/07/16 08:07:20;;;;;;;4.40;3.00;;;;;;;33.36;65.71;100491.19;4946472;28;71145;-37
2022/07/16 08:09:51;;;;;;;6.20;3.10;;;;;;;33.37;65.80;100512.69;4957199;28;65870;-37
2022/07/16 08:12:22;;;;;;;16.60;3.05;;;;;;;33.27;65.64;100487.25;5026883;28;70731;-37
2022/07/16 08:14:53;;;;;;;6.77;3.17;;;;;;;33.42;65.35;100492.91;4958250;28;66543;-37
2022/07/16 08:17:24;;;;;;;11.30;3.40;;;;;;;33.43;65.39;100496.47;4958526;28;69861;-39
2022/07/16 08:19:56;;;;;;;4.25;3.20;;;;;;;33.43;65.39;100502.72;4958523;28;65805;-38
2022/07/16 08:22:28;;;;;;;5.78;2.88;;;;;;;33.10;65.14;100439.13;4947527;28;69956;-37
2022/07/16 08:27:48;;;;;;;5.72;3.22;;;;;;;33.35;64.80;100468.63;4957995;28;69124;-37
2022/07/16 08:30:20;;;;;;;4.47;2.67;;;;;;;33.42;64.89;100483.94;4958511;28;66232;-38
2022/07/16 08:32:51;;;;;;;5.15;2.92;;;;;;;33.46;64.67;100491.38;5039937;28;69634;-37
2022/07/16 08:35:22;;;;;;;6.13;3.13;;;;;;;33.40;65.01;100469.75;4958698;28;64915;-38
2022/07/16 08:37:54;;;;;;;6.60;3.22;;;;;;;33.42;64.51;100462.19;5022653;28;70211;-37
2022/07/16 08:40:25;;;;;;;3.13;2.80;;;;;;;33.38;64.90;100440.13;4958732;28;65579;-36
2022/07/16 08:42:56;;;;;;;5.17;3.00;;;;;;;33.36;64.63;100434.09;4956265;28;70853;-37
2022/07/16 08:45:28;;;;;;;3.85;2.72;;;;;;;33.43;64.91;100455.66;4953260;28;66556;-37
2022/07/16 08:48:00;;;;;;;7.97;3.38;;;;;;;33.05;64.37;100392.03;4952896;28;69680;-36
2022/07/16 08:50:31;;;;;;;7.75;3.22;;;;;;;33.31;64.75;100437.56;5016008;28;66090;-38
2022/07/16 08:53:06;;;;;;;7.40;3.03;;;;;;;33.38;64.72;100448.28;4950397;28;69848;-38
2022/07/16 08:55:38;;;;;;;3.78;2.80;;;;;;;32.74;64.51;100353.44;4956267;28;66313;-38
2022/07/16 08:58:10;;;;;;;3.97;3.25;;;;;;;33.38;64.92;100479.00;5023382;28;69934;-37
2022/07/16 09:00:41;;;;;;;6.05;3.20;;;;;;;33.40;65.26;100496.94;4958597;28;66644;-37
2022/07/16 09:03:15;;;;;;;7.93;2.90;;;;;;;33.38;64.86;100517.06;4949111;28;71169;-36
2022/07/16 09:05:50;;;;;;;6.68;3.03;;;;;;;33.38;65.30;100513.53;4957006;28;66208;-37
2022/07/16 09:08:22;;;;;;;3.83;3.10;;;;;;;33.34;65.34;100507.72;5020651;28;69773;-36
2022/07/16 09:10:54;;;;;;;3.72;3.05;;;;;;;33.32;65.43;100496.31;4950148;28;65237;-37
2022/07/16 09:13:25;;;;;;;5.13;3.80;;;;;;;33.35;65.09;100489.56;4954163;28;70300;-38
2022/07/16 09:15:56;;;;;;;4.38;3.50;;;;;;;33.20;65.30;100460.19;4951916;28;66413;-38
2022/07/16 09:18:27;;;;;;;6.70;3.97;;;;;;;33.29;65.38;100469.63;4954114;28;70892;-36
2022/07/16 09:21:01;;;;;;;6.27;3.90;;;;;;;33.28;65.22;100484.25;5021428;28;66505;-37
2022/07/16 09:23:31;;;;;;;10.57;4.30;;;;;;;33.28;65.46;100470.66;4956294;28;69360;-37
2022/07/16 09:26:10;;;;;;;5.80;4.50;;;;;;;32.90;65.24;100422.44;4953189;28;66870;-36
2022/07/16 09:28:47;;;;;;;5.90;3.67;;;;;;;32.75;65.20;100398.53;4952226;28;69659;-36
2022/07/16 09:31:36;;;;;;;6.50;4.10;;;;;;;32.35;65.33;100361.41;4954594;28;65222;-36
2022/07/16 09:34:16;;;;;;;14.90;4.95;;;;;;;33.15;65.50;100506.31;4956172;28;70010;-38
2022/07/16 09:37:05;;;;;;;15.80;5.85;;;;;;;32.64;65.43;100434.72;4946774;28;66001;-37
2022/07/16 09:39:36;;;;;;;8.38;6.32;;;;;;;33.19;65.32;100512.94;4954806;28;70267;-37
2022/07/16 09:42:07;;;;;;;17.00;6.57;;;;;;;33.19;65.61;100521.06;4955694;28;65111;-35
2022/07/16 09:44:42;;;;;;;11.65;6.75;;;;;;;33.15;65.28;100523.47;4954723;28;70669;-36
2022/07/16 09:47:15;;;;;;;14.70;7.35;;;;;;;33.19;65.50;100522.97;4953193;28;66048;-35
2022/07/16 09:49:53;;;;;;;18.75;7.75;;;;;;;33.15;65.04;100506.31;4951050;28;70352;-37
2022/07/16 09:52:32;;;;;;;21.20;8.60;;;;;;;33.11;65.46;100486.16;4954883;28;66382;-36
2022/07/16 09:55:04;;;;;;;14.13;8.15;;;;;;;33.12;65.39;100479.63;4955868;28;69908;-37
2022/07/16 09:57:36;;;;;;;16.73;8.27;;;;;;;33.12;65.51;100466.03;4955745;28;65217;-36
2022/07/16 10:00:10;;;;;;;;;;;;;;;32.76;66.49;100461.81;4960655;28;69545;-37
2022/07/16 10:02:42;;;;;;;16.33;7.15;;;;;;;32.98;65.74;100453.81;4952368;28;65612;-36
2022/07/16 10:05:13;;;;;;;12.32;7.20;;;;;;;33.07;65.81;100465.94;5015842;28;69224;-37
2022/07/16 10:07:44;;;;;;;13.07;7.28;;;;;;;33.06;66.03;100470.56;4960559;28;65777;-37
2022/07/16 10:10:15;;;;;;;18.58;7.43;;;;;;;32.99;65.43;100472.59;4957927;28;68811;-38
2022/07/16 10:12:48;;;;;;;15.23;8.48;;;;;;;33.07;65.66;100483.09;4956028;28;66740;-37
2022/07/16 10:15:20;;;;;;;18.85;9.80;;;;;;;32.51;65.76;100391.56;4959696;28;69987;-37
2022/07/16 10:17:52;;;;;;;18.75;10.70;;;;;;;33.06;65.75;100486.06;4959734;28;66749;-37
2022/07/16 10:20:23;;;;;;;21.23;12.18;;;;;;;33.04;65.66;100490.91;5036707;28;70086;-37
2022/07/16 10:22:54;;;;;;;24.90;13.20;;;;;;;32.98;65.97;100489.94;4961597;28;66129;-37
2022/07/16 10:25:28;;;;;;;18.52;12.10;;;;;;;32.90;65.91;100488.47;4950443;28;70358;-36
2022/07/16 10:27:59;;;;;;;14.50;11.67;;;;;;;32.87;65.70;100499.81;4955793;28;66229;-37
2022/07/16 10:30:30;;;;;;;13.95;10.95;;;;;;;32.89;65.91;100508.53;4957476;28;70264;-37
2022/07/16 10:33:12;;;;;;;16.58;11.45;;;;;;;32.99;66.13;100528.81;4957450;28;66451;-37
2022/07/16 10:35:48;;;;;;;13.67;10.13;;;;;;;32.99;65.84;100534.25;4997572;28;69623;-36
2022/07/16 10:39:05;;;;;;;16.88;10.60;;;;;;;32.86;66.35;100532.66;5016862;28;66676;-38
2022/07/16 10:41:48;;;;;;;16.35;9.98;;;;;;;32.70;66.29;100501.66;4944617;28;69324;-37
2022/07/16 10:44:22;;;;;;;16.02;9.65;;;;;;;32.96;66.22;100535.59;4956912;28;65951;-37
2022/07/16 10:46:55;;;;;;;13.32;9.13;;;;;;;32.96;66.45;100545.59;4956291;28;71159;-37
2022/07/16 10:49:29;;;;;;;15.05;8.52;;;;;;;32.88;66.32;100528.63;4957796;28;66233;-37
2022/07/16 10:52:03;;;;;;;15.05;9.13;;;;;;;32.94;66.39;100560.25;4970535;28;70433;-38
2022/07/16 10:54:39;;;;;;;12.40;8.82;;;;;;;32.93;66.46;100553.19;4957985;28;63057;-36
2022/07/16 10:57:12;;;;;;;12.65;7.53;;;;;;;32.70;66.36;100526.91;4957022;28;70325;-36
2022/07/16 10:59:46;;;;;;;10.40;7.50;;;;;;;32.56;66.82;100532.88;4959430;28;65596;-36
2022/07/16 11:02:19;;;;;;;15.27;7.18;;;;;;;32.90;67.33;100597.16;4958166;28;70083;-37
2022/07/16 11:04:56;;;;;;;9.75;7.15;;;;;;;32.87;67.47;100603.03;4960396;28;66287;-36
2022/07/16 11:07:34;;;;;;;15.57;7.07;;;;;;;32.46;67.00;100547.88;4959238;28;71657;-37
2022/07/16 11:10:06;;;;;;;8.77;6.30;;;;;;;32.85;67.43;100616.06;5031420;28;66621;-37
2022/07/16 11:12:37;;;;;;;9.95;5.97;;;;;;;32.83;67.59;100612.75;4952459;28;70112;-37
2022/07/16 11:15:12;;;;;;;7.55;6.72;;;;;;;32.83;67.68;100620.91;4956751;28;65466;-38
2022/07/16 11:17:43;;;;;;;8.68;6.20;;;;;;;32.84;67.85;100619.81;4968958;28;69630;-39
2022/07/16 11:20:14;;;;;;;9.60;6.15;;;;;;;32.81;67.55;100617.59;4964776;28;65994;-37
2022/07/16 11:22:45;;;;;;;6.33;5.43;;;;;;;32.79;68.09;100617.03;5018306;28;71177;-38
2022/07/16 11:25:16;;;;;;;10.02;5.60;;;;;;;32.78;68.01;100609.91;4964869;28;67756;-37
2022/07/16 11:27:47;;;;;;;7.63;6.03;;;;;;;32.76;68.49;100605.78;4959436;28;69449;-37
2022/07/16 11:30:18;;;;;;;5.73;5.23;;;;;;;32.74;68.55;100595.19;4958599;28;66875;-38
2022/07/16 11:32:49;;;;;;;5.93;5.22;;;;;;;32.63;69.54;100598.75;4965099;28;68566;-37
2022/07/16 11:35:20;;;;;;;6.67;6.00;;;;;;;32.62;69.63;100599.78;5001732;28;67379;-40
2022/07/16 11:37:57;;;;;;;9.67;5.47;;;;;;;32.55;70.39;100609.97;4956232;28;70836;-35
2022/07/16 11:40:37;;;;;;;8.95;5.68;;;;;;;32.57;70.44;100610.53;4957445;28;66288;-36
2022/07/16 11:43:08;;;;;;;7.57;5.30;;;;;;;32.52;71.28;100616.69;5022834;28;71332;-38
2022/07/16 11:45:45;;;;;;;10.27;5.90;;;;;;;32.20;71.42;100564.63;5023217;28;66250;-38
2022/07/16 11:48:19;;;;;;;9.23;5.63;;;;;;;32.53;70.83;100614.81;5034753;28;70567;-37
2022/07/16 11:50:52;;;;;;;5.78;5.28;;;;;;;32.44;71.88;100609.72;5015420;28;66346;-37